BAW834 EGLL-EIDW
Flight info
| Callsign | BAW834 |
|---|---|
| Flight time | 0h 54m |
| Altitude | 34000 |
| Route | CPT3F CPT L9 DIDZA N14 BIBPE DCT OKTAD DCT MEDOG DCT KRAGY DCT PEMOB DCT LEMGU M17 VATRY VATRY4L |
| Aircraft | A320/M-SDE3FGHIJ1RWXY/S |
Departure
| Time | 2026-05-04 15:36 |
|---|---|
| Airport | London Heathrow Airport (EGLL) |
Arrival
| Time | 2026-05-04 16:31 |
|---|---|
| Airport | Dublin Airport (EIDW) |
| Time | Latitude | Longitude | Altitude | Speed | Heading |
|---|---|---|---|---|---|
| 2026-05-04 14:55 | 51.46928 | -0.48650 | 77 ft | 0 kts | 360° |
| 2026-05-04 14:56 | 51.46930 | -0.48650 | 91 ft | 0 kts | 360° |
| 2026-05-04 15:20 | 51.46921 | -0.48650 | 91 ft | 4 kts | 359° |
| 2026-05-04 15:20 | 51.46900 | -0.48649 | 91 ft | 3 kts | 360° |
| 2026-05-04 15:20 | 51.46878 | -0.48654 | 88 ft | 4 kts | 65° |
| 2026-05-04 15:20 | 51.46876 | -0.48688 | 89 ft | 2 kts | 90° |
| 2026-05-04 15:21 | 51.46876 | -0.48691 | 88 ft | 0 kts | 90° |
| 2026-05-04 15:24 | 51.46876 | -0.48687 | 89 ft | 2 kts | 90° |
| 2026-05-04 15:24 | 51.46877 | -0.48588 | 87 ft | 7 kts | 89° |
| 2026-05-04 15:25 | 51.46877 | -0.48492 | 87 ft | 10 kts | 89° |
| 2026-05-04 15:25 | 51.46896 | -0.48379 | 90 ft | 12 kts | 47° |
| 2026-05-04 15:25 | 51.46974 | -0.48358 | 88 ft | 13 kts | 0° |
| 2026-05-04 15:26 | 51.47031 | -0.48357 | 88 ft | 0 kts | 0° |
| 2026-05-04 15:26 | 51.47038 | -0.48357 | 88 ft | 2 kts | 0° |
| 2026-05-04 15:27 | 51.47051 | -0.48357 | 88 ft | 0 kts | 0° |
| 2026-05-04 15:28 | 51.47053 | -0.48356 | 88 ft | 1 kts | 0° |
| 2026-05-04 15:28 | 51.47070 | -0.48356 | 88 ft | 4 kts | 0° |
| 2026-05-04 15:28 | 51.47233 | -0.48355 | 89 ft | 23 kts | 0° |
| 2026-05-04 15:29 | 51.47356 | -0.48355 | 89 ft | 14 kts | 359° |
| 2026-05-04 15:30 | 51.47496 | -0.47841 | 87 ft | 23 kts | 91° |
| 2026-05-04 15:30 | 51.47499 | -0.47027 | 87 ft | 30 kts | 91° |
| 2026-05-04 15:31 | 51.47513 | -0.46426 | 90 ft | 27 kts | 89° |
| 2026-05-04 15:31 | 51.47515 | -0.46127 | 87 ft | 29 kts | 89° |
| 2026-05-04 15:32 | 51.47508 | -0.45056 | 90 ft | 24 kts | 90° |
| 2026-05-04 15:32 | 51.47503 | -0.44493 | 87 ft | 30 kts | 90° |
| 2026-05-04 15:33 | 51.47505 | -0.44021 | 87 ft | 25 kts | 90° |
| 2026-05-04 15:34 | 51.47572 | -0.43591 | 87 ft | 20 kts | 19° |
| 2026-05-04 15:34 | 51.47648 | -0.43484 | 89 ft | 18 kts | 47° |
| 2026-05-04 15:34 | 51.47765 | -0.43532 | 89 ft | 7 kts | 268° |
| 2026-05-04 15:35 | 51.47763 | -0.43661 | 86 ft | 42 kts | 269° |
| 2026-05-04 15:35 | 51.47761 | -0.44177 | 86 ft | 91 kts | 270° |
| 2026-05-04 15:35 | 51.47754 | -0.46055 | 95 ft | 158 kts | 270° |
| 2026-05-04 15:36 | 51.47743 | -0.49115 | 1082 ft | 164 kts | 270° |
| 2026-05-04 15:36 | 51.47752 | -0.50994 | 1587 ft | 177 kts | 270° |
| 2026-05-04 15:36 | 51.47664 | -0.53084 | 1932 ft | 200 kts | 257° |
| 2026-05-04 15:37 | 51.47318 | -0.55362 | 2361 ft | 219 kts | 256° |
| 2026-05-04 15:37 | 51.46937 | -0.57843 | 2901 ft | 235 kts | 256° |
| 2026-05-04 15:37 | 51.46544 | -0.60414 | 3773 ft | 240 kts | 256° |
| 2026-05-04 15:37 | 51.46149 | -0.62996 | 4600 ft | 242 kts | 256° |
| 2026-05-04 15:38 | 51.45742 | -0.65675 | 5459 ft | 246 kts | 257° |
| 2026-05-04 15:38 | 51.45572 | -0.68400 | 5876 ft | 253 kts | 269° |
| 2026-05-04 15:38 | 51.45544 | -0.71377 | 5976 ft | 269 kts | 269° |
| 2026-05-04 15:38 | 51.45526 | -0.74343 | 5987 ft | 271 kts | 269° |
| 2026-05-04 15:39 | 51.45502 | -0.77367 | 5988 ft | 271 kts | 269° |
| 2026-05-04 15:39 | 51.45453 | -0.80381 | 5989 ft | 271 kts | 268° |
| 2026-05-04 15:39 | 51.45322 | -0.86426 | 6006 ft | 271 kts | 268° |
| 2026-05-04 15:40 | 51.45457 | -0.89427 | 6009 ft | 271 kts | 280° |
| 2026-05-04 15:40 | 51.45802 | -0.92397 | 6010 ft | 271 kts | 280° |
| 2026-05-04 15:40 | 51.46143 | -0.95377 | 6004 ft | 271 kts | 280° |
| 2026-05-04 15:40 | 51.46480 | -0.98344 | 6011 ft | 271 kts | 280° |
| 2026-05-04 15:41 | 51.46819 | -1.01315 | 6005 ft | 271 kts | 280° |
| 2026-05-04 15:41 | 51.47160 | -1.04288 | 6009 ft | 271 kts | 280° |
| 2026-05-04 15:41 | 51.47501 | -1.07279 | 6110 ft | 274 kts | 280° |
| 2026-05-04 15:41 | 51.47825 | -1.10162 | 7044 ft | 275 kts | 280° |
| 2026-05-04 15:42 | 51.48167 | -1.13223 | 8067 ft | 278 kts | 280° |
| 2026-05-04 15:42 | 51.48510 | -1.16294 | 9027 ft | 282 kts | 280° |
| 2026-05-04 15:42 | 51.48889 | -1.19411 | 9943 ft | 286 kts | 285° |
| 2026-05-04 15:42 | 51.49696 | -1.22342 | 10812 ft | 291 kts | 303° |
| 2026-05-04 15:43 | 51.51017 | -1.24818 | 11602 ft | 298 kts | 316° |
| 2026-05-04 15:43 | 51.52585 | -1.27172 | 11914 ft | 321 kts | 317° |
| 2026-05-04 15:43 | 51.54271 | -1.29702 | 11999 ft | 338 kts | 316° |
| 2026-05-04 15:43 | 51.55999 | -1.32298 | 12009 ft | 342 kts | 316° |
| 2026-05-04 15:44 | 51.57742 | -1.34929 | 12009 ft | 343 kts | 316° |
| 2026-05-04 15:44 | 51.59480 | -1.37566 | 12008 ft | 343 kts | 315° |
| 2026-05-04 15:44 | 51.61020 | -1.40488 | 12009 ft | 343 kts | 304° |
| 2026-05-04 15:44 | 51.62208 | -1.43808 | 12025 ft | 344 kts | 298° |
| 2026-05-04 15:45 | 51.63347 | -1.47230 | 12732 ft | 347 kts | 298° |
| 2026-05-04 15:45 | 51.64493 | -1.50669 | 13513 ft | 350 kts | 298° |
| 2026-05-04 15:45 | 51.65650 | -1.54145 | 14241 ft | 354 kts | 298° |
| 2026-05-04 15:45 | 51.66819 | -1.57658 | 14951 ft | 358 kts | 298° |
| 2026-05-04 15:46 | 51.68001 | -1.61208 | 15642 ft | 361 kts | 298° |
| 2026-05-04 15:46 | 51.69190 | -1.64794 | 16305 ft | 365 kts | 297° |
| 2026-05-04 15:46 | 51.70191 | -1.68572 | 16937 ft | 368 kts | 287° |
| 2026-05-04 15:46 | 51.70734 | -1.72622 | 17566 ft | 372 kts | 277° |
| 2026-05-04 15:47 | 51.71024 | -1.76782 | 18202 ft | 375 kts | 276° |
| 2026-05-04 15:47 | 51.71320 | -1.80978 | 18812 ft | 379 kts | 276° |
| 2026-05-04 15:47 | 51.71651 | -1.85211 | 19428 ft | 382 kts | 280° |
| 2026-05-04 15:47 | 51.72244 | -1.89351 | 20019 ft | 386 kts | 283° |
| 2026-05-04 15:48 | 51.72885 | -1.93576 | 20624 ft | 390 kts | 283° |
| 2026-05-04 15:48 | 51.73526 | -1.97838 | 21189 ft | 393 kts | 283° |
| 2026-05-04 15:48 | 51.74808 | -2.06487 | 22275 ft | 400 kts | 283° |
| 2026-05-04 15:49 | 51.75452 | -2.10872 | 22792 ft | 403 kts | 283° |
| 2026-05-04 15:49 | 51.76099 | -2.15298 | 23305 ft | 406 kts | 283° |
| 2026-05-04 15:49 | 51.76752 | -2.19751 | 23819 ft | 410 kts | 283° |
| 2026-05-04 15:49 | 51.77411 | -2.24250 | 24331 ft | 413 kts | 283° |
| 2026-05-04 15:50 | 51.78071 | -2.28772 | 24826 ft | 416 kts | 283° |
| 2026-05-04 15:50 | 51.78734 | -2.33334 | 25323 ft | 418 kts | 283° |
| 2026-05-04 15:50 | 51.79398 | -2.37920 | 25797 ft | 421 kts | 283° |
| 2026-05-04 15:50 | 51.80066 | -2.42538 | 26253 ft | 424 kts | 283° |
| 2026-05-04 15:51 | 51.80737 | -2.47196 | 26705 ft | 427 kts | 283° |
| 2026-05-04 15:51 | 51.81409 | -2.51898 | 27135 ft | 430 kts | 283° |
| 2026-05-04 15:51 | 51.82084 | -2.56643 | 27568 ft | 434 kts | 283° |
| 2026-05-04 15:51 | 51.82749 | -2.61405 | 27997 ft | 437 kts | 282° |
| 2026-05-04 15:52 | 51.83398 | -2.66157 | 28414 ft | 439 kts | 282° |
| 2026-05-04 15:52 | 51.84045 | -2.70985 | 28829 ft | 442 kts | 282° |
| 2026-05-04 15:52 | 51.84695 | -2.75868 | 29223 ft | 445 kts | 282° |
| 2026-05-04 15:52 | 51.85345 | -2.80768 | 29606 ft | 447 kts | 282° |
| 2026-05-04 15:53 | 51.86000 | -2.85700 | 29971 ft | 450 kts | 282° |
| 2026-05-04 15:53 | 51.86661 | -2.90659 | 30333 ft | 453 kts | 282° |
| 2026-05-04 15:53 | 51.87326 | -2.95654 | 30694 ft | 455 kts | 282° |
| 2026-05-04 15:53 | 51.87992 | -3.00674 | 31141 ft | 455 kts | 282° |
| 2026-05-04 15:54 | 51.88655 | -3.05669 | 31648 ft | 454 kts | 282° |
| 2026-05-04 15:54 | 51.89313 | -3.10659 | 32142 ft | 454 kts | 282° |
| 2026-05-04 15:54 | 51.89931 | -3.15526 | 32745 ft | 427 kts | 281° |
| 2026-05-04 15:54 | 51.90484 | -3.20092 | 33285 ft | 400 kts | 281° |
| 2026-05-04 15:55 | 51.91026 | -3.24472 | 33501 ft | 399 kts | 282° |
| 2026-05-04 15:55 | 51.91617 | -3.28927 | 33630 ft | 409 kts | 282° |
| 2026-05-04 15:55 | 51.92239 | -3.33471 | 33757 ft | 418 kts | 282° |
| 2026-05-04 15:55 | 51.92871 | -3.38107 | 33911 ft | 425 kts | 282° |
| 2026-05-04 15:56 | 51.94127 | -3.47656 | 34012 ft | 441 kts | 282° |
| 2026-05-04 15:56 | 51.95372 | -3.57454 | 34010 ft | 445 kts | 281° |
| 2026-05-04 15:57 | 51.96612 | -3.67296 | 34010 ft | 446 kts | 281° |
| 2026-05-04 15:57 | 51.97850 | -3.77143 | 34008 ft | 445 kts | 281° |
| 2026-05-04 15:58 | 51.99076 | -3.86938 | 34008 ft | 445 kts | 281° |
| 2026-05-04 15:58 | 52.00297 | -3.96771 | 34006 ft | 445 kts | 281° |
| 2026-05-04 15:59 | 52.01508 | -4.06623 | 34009 ft | 445 kts | 281° |
| 2026-05-04 15:59 | 52.02712 | -4.16480 | 34008 ft | 445 kts | 281° |
| 2026-05-04 16:00 | 52.03904 | -4.26347 | 34014 ft | 446 kts | 281° |
| 2026-05-04 16:00 | 52.05088 | -4.36222 | 34015 ft | 445 kts | 281° |
| 2026-05-04 16:01 | 52.06269 | -4.46106 | 34019 ft | 445 kts | 281° |
| 2026-05-04 16:01 | 52.07445 | -4.55984 | 34023 ft | 445 kts | 281° |
| 2026-05-04 16:02 | 52.08613 | -4.65879 | 34015 ft | 445 kts | 281° |
| 2026-05-04 16:03 | 52.10329 | -4.80639 | 34022 ft | 444 kts | 281° |
| 2026-05-04 16:03 | 52.11470 | -4.90528 | 34025 ft | 444 kts | 281° |
| 2026-05-04 16:04 | 52.12610 | -5.00418 | 34020 ft | 444 kts | 280° |
| 2026-05-04 16:04 | 52.14310 | -5.10043 | 33752 ft | 442 kts | 296° |
| 2026-05-04 16:04 | 52.15906 | -5.14323 | 33104 ft | 442 kts | 308° |
| 2026-05-04 16:05 | 52.17992 | -5.18006 | 32392 ft | 443 kts | 319° |
| 2026-05-04 16:05 | 52.20473 | -5.20991 | 31657 ft | 445 kts | 329° |
| 2026-05-04 16:05 | 52.25913 | -5.25500 | 30575 ft | 438 kts | 333° |
| 2026-05-04 16:06 | 52.28618 | -5.27728 | 30042 ft | 434 kts | 333° |
| 2026-05-04 16:06 | 52.35747 | -5.33655 | 28610 ft | 425 kts | 333° |
| 2026-05-04 16:07 | 52.39216 | -5.36536 | 27913 ft | 420 kts | 333° |
| 2026-05-04 16:07 | 52.46954 | -5.42936 | 26319 ft | 410 kts | 333° |
| 2026-05-04 16:08 | 52.49486 | -5.45034 | 25820 ft | 407 kts | 333° |
| 2026-05-04 16:08 | 52.57081 | -5.50836 | 24305 ft | 397 kts | 342° |
| 2026-05-04 16:09 | 52.62343 | -5.53529 | 24000 ft | 396 kts | 342° |
| 2026-05-04 16:09 | 52.67614 | -5.56225 | 24008 ft | 397 kts | 342° |
| 2026-05-04 16:10 | 52.72890 | -5.58941 | 24008 ft | 397 kts | 342° |
| 2026-05-04 16:11 | 52.80736 | -5.63006 | 23447 ft | 392 kts | 342° |
| 2026-05-04 16:11 | 52.83370 | -5.64370 | 22963 ft | 389 kts | 342° |
| 2026-05-04 16:12 | 52.91004 | -5.68329 | 21526 ft | 381 kts | 342° |
| 2026-05-04 16:12 | 52.98496 | -5.72239 | 20007 ft | 369 kts | 342° |
| 2026-05-04 16:13 | 53.03365 | -5.74785 | 18593 ft | 365 kts | 342° |
| 2026-05-04 16:13 | 53.08166 | -5.77294 | 17634 ft | 359 kts | 342° |
| 2026-05-04 16:14 | 53.12593 | -5.80716 | 16297 ft | 348 kts | 320° |
| 2026-05-04 16:14 | 53.15396 | -5.87051 | 14584 ft | 338 kts | 293° |
| 2026-05-04 16:15 | 53.18153 | -5.97691 | 12099 ft | 328 kts | 293° |
| 2026-05-04 16:16 | 53.19954 | -6.04584 | 10508 ft | 320 kts | 293° |
| 2026-05-04 16:16 | 53.22468 | -6.14285 | 9809 ft | 289 kts | 293° |
| 2026-05-04 16:17 | 53.22893 | -6.20729 | 9202 ft | 283 kts | 261° |
| 2026-05-04 16:18 | 53.21963 | -6.30287 | 7506 ft | 279 kts | 261° |
| 2026-05-04 16:18 | 53.21647 | -6.33473 | 7251 ft | 277 kts | 261° |
| 2026-05-04 16:19 | 53.20711 | -6.42926 | 6998 ft | 276 kts | 261° |
| 2026-05-04 16:19 | 53.20085 | -6.49237 | 7001 ft | 276 kts | 261° |
| 2026-05-04 16:20 | 53.19492 | -6.58676 | 6567 ft | 266 kts | 284° |
| 2026-05-04 16:20 | 53.21401 | -6.63338 | 6105 ft | 239 kts | 327° |
| 2026-05-04 16:21 | 53.26167 | -6.65612 | 5228 ft | 237 kts | 347° |
| 2026-05-04 16:22 | 53.29369 | -6.66827 | 4671 ft | 235 kts | 347° |
| 2026-05-04 16:22 | 53.34103 | -6.68629 | 3954 ft | 232 kts | 346° |
| 2026-05-04 16:23 | 53.38815 | -6.69229 | 3930 ft | 216 kts | 5° |
| 2026-05-04 16:24 | 53.43829 | -6.67644 | 3934 ft | 198 kts | 34° |
| 2026-05-04 16:25 | 53.45382 | -6.64048 | 3748 ft | 185 kts | 75° |
| 2026-05-04 16:26 | 53.45232 | -6.56569 | 3099 ft | 143 kts | 95° |
| 2026-05-04 16:26 | 53.44972 | -6.51581 | 2900 ft | 145 kts | 95° |
| 2026-05-04 16:27 | 53.44797 | -6.48243 | 2580 ft | 143 kts | 95° |
| 2026-05-04 16:28 | 53.44534 | -6.43290 | 2036 ft | 142 kts | 95° |
| 2026-05-04 16:28 | 53.44271 | -6.38365 | 1474 ft | 140 kts | 95° |
| 2026-05-04 16:29 | 53.43920 | -6.31884 | 731 ft | 139 kts | 95° |
| 2026-05-04 16:30 | 53.43657 | -6.27081 | 219 ft | 132 kts | 95° |
| 2026-05-04 16:31 | 53.43580 | -6.25549 | 212 ft | 18 kts | 98° |
| 2026-05-04 16:31 | 53.43403 | -6.25009 | 217 ft | 5 kts | 241° |
| 2026-05-04 16:32 | 53.43405 | -6.25558 | 211 ft | 21 kts | 270° |
| 2026-05-04 16:33 | 53.43243 | -6.25571 | 213 ft | 19 kts | 157° |
| 2026-05-04 16:33 | 53.43006 | -6.25397 | 221 ft | 21 kts | 156° |
| 2026-05-04 16:34 | 53.42721 | -6.25180 | 211 ft | 20 kts | 129° |
| 2026-05-04 16:34 | 53.42636 | -6.25066 | 215 ft | 16 kts | 156° |
| 2026-05-04 16:35 | 53.42227 | -6.24769 | 214 ft | 25 kts | 155° |
| 2026-05-04 16:35 | 53.42160 | -6.24337 | 211 ft | 7 kts | 94° |
| 2026-05-04 16:36 | 53.42160 | -6.24322 | 215 ft | 3 kts | 94° |
| 2026-05-04 16:36 | 53.42162 | -6.24304 | 211 ft | 2 kts | 75° |
| 2026-05-04 16:37 | 53.42223 | -6.24324 | 216 ft | 8 kts | 329° |
| 2026-05-04 16:37 | 53.42256 | -6.24355 | 216 ft | 0 kts | 331° |
| 2026-05-04 16:37 | 53.42263 | -6.24361 | 213 ft | 0 kts | 331° |